Current | Forecast
Updated: 9:00 PM JST on June 27, 2017
Observed at Kagoshima Airport, Japan
Temperature 72°F
Humidity 94%
Dew Point 70°F
Wind ENE at 1 mph
Pressure 29.92 in (Rising)
Conditions Mostly Cloudy
Visibility 6.2 miles
UV 0 out of 16
Clouds (FEW) : 400 ft
Scattered Clouds (SCT) : 2500 ft
Mostly Cloudy (BKN) : 4000 ft
Yesterday's Maximum 73°F
Yesterday's Minimum 70°F approx.
Yesterday's Cooling Degree Days 7 approx.
Sunrise5:13 AM JST
Sunset7:24 PM JST
Moon Rise8:26 AM JST
Moon Set10:07 PM JST
Moon PhaseMoon Phase
Waxing Crescent
Raw METARMETAR RJFK 271200Z 06001KT 9999 FEW004 SCT025 BKN040 22/21 Q1013 RMK 1ST004 3CU025 6CU040 A2992


Monday
. High: 71° F.
Tuesday
. High: 73° F.
Wednesday
. High: 73° F.
Thursday
. High: 69° F.
Friday
. High: 65° F.
Saturday
. High: 78° F.
Sunday
. High: 75° F.
Monday
. High: 71° F.

Units: English | Metric

Find the Weather for any City, State or Zipcode, or Country:

U.S. State List | Severe Weather | Tropical Storms | Ski Conditions
United States | Canada | Central America | South America | Asia | Europe | Australia | Africa | Islands

Weather Underground

© Copyright 2017
The Weather Company, LLC